createdAt,value
2023-01-08T00:01:34.061Z,61.75
2023-01-08T00:06:38.239Z,58.30
2023-01-08T00:11:42.992Z,57.72
2023-01-08T00:16:48.406Z,57.53
2023-01-08T00:21:52.132Z,51.63
2023-01-08T00:26:56.254Z,50.60
2023-01-08T00:32:01.624Z,51.60
2023-01-08T00:37:05.564Z,52.50
2023-01-08T00:42:09.247Z,46.40
2023-01-08T00:47:14.580Z,45.28
2023-01-08T00:52:18.257Z,50.50
2023-01-08T00:57:22.025Z,46.03
2023-01-08T01:02:27.877Z,45.03
2023-01-08T01:07:31.665Z,42.63
2023-01-08T01:12:35.520Z,41.35
2023-01-08T01:17:49.270Z,39.33
2023-01-08T01:23:01.752Z,41.88
2023-01-08T01:28:06.136Z,37.35
2023-01-08T01:33:11.296Z,35.40
2023-01-08T01:38:15.484Z,38.78
2023-01-08T01:43:40.681Z,38.70
2023-01-08T01:48:46.516Z,34.10
2023-01-08T01:53:51.539Z,32.47
2023-01-08T01:58:56.022Z,36.30
2023-01-08T02:04:01.149Z,33.45
2023-01-08T02:09:16.265Z,31.52
2023-01-08T02:14:31.386Z,29.45
2023-01-08T02:19:47.200Z,31.10
2023-01-08T02:25:01.561Z,28.55
2023-01-08T02:30:09.065Z,30.08
2023-01-08T02:35:13.678Z,27.25
2023-01-08T02:40:28.593Z,26.75
2023-01-08T02:45:45.161Z,26.65
2023-01-08T02:50:56.266Z,26.67
2023-01-08T02:56:05.589Z,25.35
2023-01-08T03:01:14.160Z,22.70
2023-01-08T03:06:21.777Z,23.17
2023-01-08T03:11:31.846Z,23.42
2023-01-08T03:16:40.999Z,22.25
2023-01-08T03:21:48.623Z,23.63
2023-01-08T03:26:58.911Z,21.73
2023-01-08T03:32:10.001Z,20.38
2023-01-08T03:37:16.625Z,25.05
2023-01-08T03:42:22.084Z,19.95
2023-01-08T03:47:29.132Z,19.48
2023-01-08T03:52:34.084Z,18.13
2023-01-08T03:57:37.815Z,19.85
2023-01-08T04:02:43.380Z,17.65
2023-01-08T04:07:47.199Z,18.13
2023-01-08T04:12:51.023Z,17.15
2023-01-08T04:17:56.726Z,14.98
2023-01-08T04:23:00.453Z,16.25
2023-01-08T04:28:03.959Z,13.77
2023-01-08T04:33:09.113Z,14.20
2023-01-08T04:38:12.762Z,14.07
2023-01-08T04:43:16.432Z,14.93
2023-01-08T04:48:21.757Z,17.98
2023-01-08T04:53:25.536Z,11.10
2023-01-08T04:58:29.838Z,11.60
2023-01-08T05:03:35.053Z,11.57
2023-01-08T05:08:38.947Z,10.30
2023-01-08T05:13:42.604Z,11.52
2023-01-08T05:18:48.295Z,10.10
2023-01-08T05:23:51.915Z,10.88
2023-01-08T05:28:55.542Z,10.20
2023-01-08T05:34:01.328Z,12.50
2023-01-08T05:39:05.616Z,9.63
2023-01-08T05:44:11.064Z,10.23
2023-01-08T05:49:17.108Z,10.18
2023-01-08T05:54:20.930Z,9.20
2023-01-08T05:59:24.597Z,9.25
2023-01-08T06:04:29.797Z,12.27
2023-01-08T06:09:33.654Z,11.57
2023-01-08T06:14:37.326Z,9.82
2023-01-08T06:19:42.478Z,12.05
2023-01-08T06:24:46.248Z,9.68
2023-01-08T06:29:49.990Z,8.02
2023-01-08T06:34:55.047Z,9.02
2023-01-08T06:39:58.699Z,9.38
2023-01-08T06:45:02.415Z,8.40
2023-01-08T06:50:08.911Z,8.40
2023-01-08T06:55:12.636Z,7.78
2023-01-08T07:00:17.452Z,11.82
2023-01-08T07:05:22.734Z,8.32
2023-01-08T07:10:26.856Z,8.48
2023-01-08T07:15:30.585Z,8.88
2023-01-08T07:20:35.845Z,7.28
2023-01-08T07:25:39.601Z,7.00
2023-01-08T07:30:43.342Z,8.20
2023-01-08T07:35:54.393Z,8.25
2023-01-08T07:40:59.718Z,8.75
2023-01-08T07:46:04.798Z,7.28
2023-01-08T07:51:11.022Z,7.03
2023-01-08T07:56:14.783Z,6.88
2023-01-08T08:01:18.843Z,6.60
2023-01-08T08:06:24.285Z,7.22
2023-01-08T08:11:28.021Z,5.65
2023-01-08T08:16:31.650Z,8.85
2023-01-08T08:21:36.849Z,6.80
2023-01-08T08:26:40.617Z,6.20
2023-01-08T08:31:44.350Z,5.47
2023-01-08T08:36:49.499Z,5.53
2023-01-08T08:41:53.073Z,5.82
2023-01-08T08:46:57.091Z,6.68
2023-01-08T08:52:02.167Z,14.52
2023-01-08T08:57:06.048Z,7.13
2023-01-08T09:02:11.834Z,7.90
2023-01-08T09:07:17.025Z,5.63
2023-01-08T09:12:20.702Z,12.73
2023-01-08T09:17:25.268Z,15.82
2023-01-08T09:22:30.214Z,10.20
2023-01-08T09:27:33.927Z,12.68
2023-01-08T09:32:38.262Z,7.13
2023-01-08T09:37:43.258Z,7.63
2023-01-08T09:42:55.136Z,7.43
2023-01-08T09:48:04.078Z,7.15
2023-01-08T09:53:16.766Z,6.18
2023-01-08T09:58:36.824Z,6.03
2023-01-08T10:03:45.694Z,4.47
2023-01-08T10:08:52.271Z,4.88
2023-01-08T10:13:58.753Z,4.50
2023-01-08T10:19:05.782Z,4.13
2023-01-08T10:24:11.150Z,4.53
2023-01-08T10:29:18.010Z,2.85
2023-01-08T10:34:46.520Z,6.22
2023-01-08T10:39:53.908Z,3.75
2023-01-08T10:45:04.880Z,3.03
2023-01-08T10:50:22.206Z,5.30
2023-01-08T10:55:31.665Z,3.88
2023-01-08T11:00:38.578Z,4.28
2023-01-08T11:05:43.509Z,4.07
2023-01-08T11:10:57.368Z,4.03
2023-01-08T11:16:06.941Z,7.30
2023-01-08T11:21:22.616Z,4.80
2023-01-08T11:26:29.195Z,6.85
2023-01-08T11:31:42.854Z,4.22
2023-01-08T11:36:54.445Z,4.82
2023-01-08T11:42:30.983Z,5.10
2023-01-08T11:47:57.996Z,6.80
2023-01-08T11:53:20.409Z,6.03
2023-01-08T11:58:42.385Z,4.15
2023-01-08T12:03:52.876Z,5.85
2023-01-08T12:09:11.796Z,3.63
2023-01-08T12:14:35.015Z,6.22
2023-01-08T12:20:07.096Z,4.40
2023-01-08T12:25:43.092Z,6.03
2023-01-08T12:31:33.913Z,5.50
2023-01-08T12:36:45.544Z,9.27
2023-01-08T12:41:51.339Z,7.53
2023-01-08T12:47:00.719Z,5.82
2023-01-08T12:52:12.791Z,5.95
2023-01-08T12:57:26.218Z,7.25
2023-01-08T13:02:51.800Z,6.60
2023-01-08T13:08:01.259Z,5.38
2023-01-08T13:13:06.936Z,5.30
2023-01-08T13:18:20.700Z,6.32
2023-01-08T13:23:28.794Z,4.95
2023-01-08T13:28:45.296Z,6.07
2023-01-08T13:33:53.213Z,5.25
2023-01-08T13:39:23.333Z,5.22
2023-01-08T13:44:31.151Z,5.90
2023-01-08T13:54:47.432Z,7.05
2023-01-08T13:59:55.460Z,5.32
2023-01-08T14:05:03.564Z,5.30
2023-01-08T14:10:14.040Z,4.90
2023-01-08T14:15:29.903Z,6.32
2023-01-08T14:20:39.854Z,4.85
2023-01-08T14:25:43.963Z,4.50
2023-01-08T14:30:51.485Z,4.82
2023-01-08T14:35:58.242Z,4.40
2023-01-08T14:41:06.250Z,4.30
2023-01-08T14:46:21.440Z,5.03
2023-01-08T14:51:30.616Z,3.58
2023-01-08T14:56:36.755Z,3.50
2023-01-08T15:01:41.062Z,3.50
2023-01-08T15:06:47.112Z,3.42
2023-01-08T15:11:57.634Z,3.95
2023-01-08T15:17:10.922Z,4.93
2023-01-08T15:22:22.303Z,3.47
2023-01-08T15:27:27.199Z,3.85
2023-01-08T15:32:34.829Z,4.47
2023-01-08T15:37:40.042Z,4.00
2023-01-08T15:43:02.524Z,2.92
2023-01-08T15:48:08.022Z,3.67
2023-01-08T15:53:19.391Z,3.67
2023-01-08T15:58:23.227Z,2.08
2023-01-08T16:03:27.772Z,3.20
2023-01-08T16:08:32.852Z,4.40
2023-01-08T16:13:36.534Z,3.63
2023-01-08T16:18:40.347Z,5.03
2023-01-08T16:23:45.764Z,4.40
2023-01-08T16:28:49.571Z,5.38
2023-01-08T16:33:53.239Z,5.75
2023-01-08T16:38:58.592Z,5.38
2023-01-08T16:44:02.492Z,8.40
2023-01-08T16:49:09.129Z,22.35
2023-01-08T16:54:18.856Z,18.20
2023-01-08T16:59:24.646Z,19.30
2023-01-08T17:04:30.813Z,17.70
2023-01-08T17:09:36.326Z,18.77
2023-01-08T17:14:40.006Z,20.65
2023-01-08T17:19:43.769Z,16.38
2023-01-08T17:24:49.013Z,19.90
2023-01-08T17:29:52.841Z,18.15
2023-01-08T17:34:56.626Z,13.57
2023-01-08T17:40:02.359Z,12.82
2023-01-08T17:45:08.391Z,12.85
2023-01-08T17:50:13.562Z,12.32
2023-01-08T17:55:19.159Z,12.18
2023-01-08T18:00:23.935Z,11.57
2023-01-08T18:05:27.617Z,9.07
2023-01-08T18:10:32.666Z,10.00
2023-01-08T18:15:36.612Z,13.43
2023-01-08T18:20:41.382Z,9.77
2023-01-08T18:25:46.561Z,5.82
2023-01-08T18:30:50.275Z,6.63
2023-01-08T18:35:54.026Z,8.98
2023-01-08T18:41:01.205Z,5.85
2023-01-08T18:46:08.885Z,6.77
2023-01-08T18:51:12.670Z,7.40
2023-01-08T18:56:23.325Z,7.18
2023-01-08T19:01:28.625Z,7.07
2023-01-08T19:06:32.764Z,6.63
2023-01-08T19:11:38.250Z,5.18
2023-01-08T19:16:43.781Z,6.68
2023-01-08T19:21:47.667Z,5.00
2023-01-08T19:26:53.167Z,6.28
2023-01-08T19:31:57.110Z,6.45
2023-01-08T19:37:01.168Z,5.28
2023-01-08T19:42:24.433Z,4.68
2023-01-08T19:47:28.194Z,7.00
2023-01-08T19:52:31.852Z,6.50
2023-01-08T19:57:37.200Z,4.85
2023-01-08T20:02:41.014Z,5.60
2023-01-08T20:07:44.828Z,5.05
2023-01-08T20:12:49.966Z,5.00
2023-01-08T20:17:53.650Z,5.05
2023-01-08T20:22:57.380Z,5.95
2023-01-08T20:28:02.513Z,3.90
2023-01-08T20:33:06.228Z,4.65
2023-01-08T20:38:10.109Z,4.55
2023-01-08T20:43:15.291Z,5.93
2023-01-08T20:48:20.881Z,5.40
2023-01-08T20:53:24.898Z,4.32
2023-01-08T20:58:30.032Z,4.10
2023-01-08T21:03:35.934Z,5.00
2023-01-08T21:08:41.573Z,4.22
2023-01-08T21:13:47.036Z,5.07
2023-01-08T21:18:51.198Z,5.18
2023-01-08T21:23:55.060Z,4.50
2023-01-08T21:29:02.963Z,4.32
2023-01-08T21:34:08.878Z,3.50
2023-01-08T21:39:12.792Z,3.67
2023-01-08T21:44:37.981Z,4.75
2023-01-08T21:49:42.102Z,5.15
2023-01-08T21:54:45.775Z,3.67
2023-01-08T21:59:52.836Z,3.58
2023-01-08T22:04:58.433Z,5.40
2023-01-08T22:10:03.545Z,5.00
2023-01-08T22:15:10.885Z,4.18
2023-01-08T22:20:14.954Z,4.85
2023-01-08T22:25:18.963Z,4.82
2023-01-08T22:30:24.516Z,3.33
2023-01-08T22:35:28.191Z,4.80
2023-01-08T22:40:31.883Z,4.07
2023-01-08T22:45:37.570Z,4.82
2023-01-08T22:50:41.757Z,3.92
2023-01-08T22:55:47.763Z,4.00
2023-01-08T23:00:53.121Z,7.53
2023-01-08T23:06:03.087Z,6.22
2023-01-08T23:11:07.044Z,8.85
2023-01-08T23:16:17.096Z,6.75
2023-01-08T23:21:24.677Z,7.15
2023-01-08T23:26:30.864Z,6.07
2023-01-08T23:31:37.826Z,6.20
2023-01-08T23:36:43.058Z,5.57
2023-01-08T23:41:46.942Z,5.00
2023-01-08T23:46:52.033Z,5.65
2023-01-08T23:51:55.903Z,7.20
2023-01-08T23:56:59.556Z,6.15
